sensor_id;sensor_type;location;lat;lon;timestamp;P1;durP1;ratioP1;P2;durP2;ratioP2
45806;SDS011;31507;51.494;7.518;2023-06-10T00:01:40;8.52;;;5.38;;
45806;SDS011;31507;51.494;7.518;2023-06-10T00:04:06;9.38;;;6.10;;
45806;SDS011;31507;51.494;7.518;2023-06-10T00:06:32;7.88;;;6.30;;
45806;SDS011;31507;51.494;7.518;2023-06-10T00:09:00;7.90;;;6.35;;
45806;SDS011;31507;51.494;7.518;2023-06-10T00:11:39;9.13;;;6.82;;
45806;SDS011;31507;51.494;7.518;2023-06-10T00:14:05;8.60;;;6.32;;
45806;SDS011;31507;51.494;7.518;2023-06-10T00:16:31;9.27;;;6.38;;
45806;SDS011;31507;51.494;7.518;2023-06-10T00:18:58;8.20;;;5.75;;
45806;SDS011;31507;51.494;7.518;2023-06-10T00:21:29;8.55;;;6.38;;
45806;SDS011;31507;51.494;7.518;2023-06-10T00:24:08;8.98;;;6.28;;
45806;SDS011;31507;51.494;7.518;2023-06-10T00:26:37;6.35;;;5.60;;
45806;SDS011;31507;51.494;7.518;2023-06-10T00:29:06;9.45;;;6.35;;
45806;SDS011;31507;51.494;7.518;2023-06-10T00:31:33;7.97;;;6.35;;
45806;SDS011;31507;51.494;7.518;2023-06-10T00:33:59;7.40;;;6.38;;
45806;SDS011;31507;51.494;7.518;2023-06-10T00:36:25;8.88;;;5.82;;
45806;SDS011;31507;51.494;7.518;2023-06-10T00:38:51;9.52;;;6.28;;
45806;SDS011;31507;51.494;7.518;2023-06-10T00:41:17;12.30;;;6.38;;
45806;SDS011;31507;51.494;7.518;2023-06-10T00:43:43;6.68;;;5.60;;
45806;SDS011;31507;51.494;7.518;2023-06-10T00:46:09;11.30;;;6.30;;
45806;SDS011;31507;51.494;7.518;2023-06-10T00:48:36;7.97;;;6.00;;
45806;SDS011;31507;51.494;7.518;2023-06-10T00:51:03;7.25;;;5.93;;
45806;SDS011;31507;51.494;7.518;2023-06-10T00:53:31;8.00;;;5.63;;
45806;SDS011;31507;51.494;7.518;2023-06-10T00:55:57;9.13;;;6.13;;
45806;SDS011;31507;51.494;7.518;2023-06-10T00:58:24;6.70;;;6.00;;
45806;SDS011;31507;51.494;7.518;2023-06-10T01:00:50;7.78;;;6.40;;
45806;SDS011;31507;51.494;7.518;2023-06-10T01:03:16;8.93;;;6.60;;
45806;SDS011;31507;51.494;7.518;2023-06-10T01:05:43;9.90;;;6.45;;
45806;SDS011;31507;51.494;7.518;2023-06-10T01:08:19;7.18;;;6.30;;
45806;SDS011;31507;51.494;7.518;2023-06-10T01:10:57;9.15;;;7.05;;
45806;SDS011;31507;51.494;7.518;2023-06-10T01:13:25;9.85;;;7.25;;
45806;SDS011;31507;51.494;7.518;2023-06-10T01:15:54;10.50;;;7.90;;
45806;SDS011;31507;51.494;7.518;2023-06-10T01:18:21;10.52;;;7.78;;
45806;SDS011;31507;51.494;7.518;2023-06-10T01:20:47;9.93;;;7.32;;
45806;SDS011;31507;51.494;7.518;2023-06-10T01:23:13;8.70;;;7.30;;
45806;SDS011;31507;51.494;7.518;2023-06-10T01:25:40;11.73;;;7.50;;
45806;SDS011;31507;51.494;7.518;2023-06-10T01:28:19;12.52;;;8.13;;
45806;SDS011;31507;51.494;7.518;2023-06-10T01:30:55;7.93;;;7.13;;
45806;SDS011;31507;51.494;7.518;2023-06-10T01:33:45;9.65;;;8.45;;
45806;SDS011;31507;51.494;7.518;2023-06-10T01:36:13;8.68;;;7.90;;
45806;SDS011;31507;51.494;7.518;2023-06-10T01:38:44;14.80;;;8.02;;
45806;SDS011;31507;51.494;7.518;2023-06-10T01:41:15;11.18;;;8.10;;
45806;SDS011;31507;51.494;7.518;2023-06-10T01:43:43;10.57;;;8.70;;
45806;SDS011;31507;51.494;7.518;2023-06-10T01:46:10;12.80;;;8.43;;
45806;SDS011;31507;51.494;7.518;2023-06-10T01:48:37;14.27;;;9.07;;
45806;SDS011;31507;51.494;7.518;2023-06-10T01:51:03;11.30;;;8.85;;
45806;SDS011;31507;51.494;7.518;2023-06-10T01:53:29;9.65;;;8.75;;
45806;SDS011;31507;51.494;7.518;2023-06-10T01:55:55;9.88;;;8.60;;
45806;SDS011;31507;51.494;7.518;2023-06-10T01:58:20;10.00;;;8.77;;
45806;SDS011;31507;51.494;7.518;2023-06-10T02:00:46;12.27;;;8.55;;
45806;SDS011;31507;51.494;7.518;2023-06-10T02:03:12;9.38;;;8.48;;
45806;SDS011;31507;51.494;7.518;2023-06-10T02:05:37;11.35;;;9.07;;
45806;SDS011;31507;51.494;7.518;2023-06-10T02:08:03;12.73;;;9.90;;
45806;SDS011;31507;51.494;7.518;2023-06-10T02:10:29;15.32;;;10.27;;
45806;SDS011;31507;51.494;7.518;2023-06-10T02:12:58;14.48;;;9.98;;
45806;SDS011;31507;51.494;7.518;2023-06-10T02:15:23;13.07;;;9.80;;
45806;SDS011;31507;51.494;7.518;2023-06-10T02:17:49;14.23;;;10.13;;
45806;SDS011;31507;51.494;7.518;2023-06-10T02:20:15;12.02;;;9.90;;
45806;SDS011;31507;51.494;7.518;2023-06-10T02:22:41;11.80;;;10.32;;
45806;SDS011;31507;51.494;7.518;2023-06-10T02:25:06;12.75;;;10.88;;
45806;SDS011;31507;51.494;7.518;2023-06-10T02:27:33;14.18;;;10.77;;
45806;SDS011;31507;51.494;7.518;2023-06-10T02:29:58;13.27;;;10.80;;
45806;SDS011;31507;51.494;7.518;2023-06-10T02:32:24;13.98;;;11.77;;
45806;SDS011;31507;51.494;7.518;2023-06-10T02:34:50;17.30;;;11.73;;
45806;SDS011;31507;51.494;7.518;2023-06-10T02:37:16;13.45;;;11.65;;
45806;SDS011;31507;51.494;7.518;2023-06-10T02:39:42;29.23;;;12.88;;
45806;SDS011;31507;51.494;7.518;2023-06-10T02:42:08;14.73;;;13.18;;
45806;SDS011;31507;51.494;7.518;2023-06-10T02:44:33;14.57;;;13.07;;
45806;SDS011;31507;51.494;7.518;2023-06-10T02:46:59;14.68;;;12.65;;
45806;SDS011;31507;51.494;7.518;2023-06-10T02:49:25;16.15;;;13.20;;
45806;SDS011;31507;51.494;7.518;2023-06-10T02:51:53;15.30;;;13.68;;
45806;SDS011;31507;51.494;7.518;2023-06-10T02:54:21;16.00;;;13.77;;
45806;SDS011;31507;51.494;7.518;2023-06-10T02:56:47;15.88;;;14.23;;
45806;SDS011;31507;51.494;7.518;2023-06-10T02:59:13;15.30;;;13.60;;
45806;SDS011;31507;51.494;7.518;2023-06-10T03:01:39;22.02;;;14.18;;
45806;SDS011;31507;51.494;7.518;2023-06-10T03:04:05;17.38;;;15.57;;
45806;SDS011;31507;51.494;7.518;2023-06-10T03:06:32;18.60;;;15.27;;
45806;SDS011;31507;51.494;7.518;2023-06-10T03:09:01;17.58;;;15.35;;
45806;SDS011;31507;51.494;7.518;2023-06-10T03:11:29;19.00;;;15.73;;
45806;SDS011;31507;51.494;7.518;2023-06-10T03:13:55;17.48;;;15.77;;
45806;SDS011;31507;51.494;7.518;2023-06-10T03:16:21;18.48;;;15.48;;
45806;SDS011;31507;51.494;7.518;2023-06-10T03:18:48;22.13;;;15.60;;
45806;SDS011;31507;51.494;7.518;2023-06-10T03:21:14;17.20;;;14.85;;
45806;SDS011;31507;51.494;7.518;2023-06-10T03:23:40;20.33;;;15.82;;
45806;SDS011;31507;51.494;7.518;2023-06-10T03:26:05;23.65;;;16.67;;
45806;SDS011;31507;51.494;7.518;2023-06-10T03:28:31;17.73;;;15.88;;
45806;SDS011;31507;51.494;7.518;2023-06-10T03:30:57;18.17;;;16.23;;
45806;SDS011;31507;51.494;7.518;2023-06-10T03:33:22;22.23;;;16.42;;
45806;SDS011;31507;51.494;7.518;2023-06-10T03:35:48;21.02;;;15.93;;
45806;SDS011;31507;51.494;7.518;2023-06-10T03:38:14;20.10;;;16.00;;
45806;SDS011;31507;51.494;7.518;2023-06-10T03:40:40;23.65;;;16.83;;
45806;SDS011;31507;51.494;7.518;2023-06-10T03:43:05;25.23;;;15.73;;
45806;SDS011;31507;51.494;7.518;2023-06-10T03:45:31;22.85;;;16.10;;
45806;SDS011;31507;51.494;7.518;2023-06-10T03:47:57;21.08;;;16.60;;
45806;SDS011;31507;51.494;7.518;2023-06-10T03:50:23;20.75;;;16.25;;
45806;SDS011;31507;51.494;7.518;2023-06-10T03:52:49;20.88;;;16.98;;
45806;SDS011;31507;51.494;7.518;2023-06-10T03:55:15;22.35;;;16.75;;
45806;SDS011;31507;51.494;7.518;2023-06-10T03:57:42;23.67;;;16.60;;
45806;SDS011;31507;51.494;7.518;2023-06-10T04:00:08;17.80;;;15.80;;
45806;SDS011;31507;51.494;7.518;2023-06-10T04:02:38;20.40;;;16.35;;
45806;SDS011;31507;51.494;7.518;2023-06-10T04:05:15;19.52;;;16.67;;
45806;SDS011;31507;51.494;7.518;2023-06-10T04:07:41;20.45;;;16.15;;
45806;SDS011;31507;51.494;7.518;2023-06-10T04:10:09;19.52;;;15.68;;
45806;SDS011;31507;51.494;7.518;2023-06-10T04:12:35;20.77;;;15.45;;
45806;SDS011;31507;51.494;7.518;2023-06-10T04:15:01;17.20;;;15.40;;
45806;SDS011;31507;51.494;7.518;2023-06-10T04:17:28;17.85;;;15.15;;
45806;SDS011;31507;51.494;7.518;2023-06-10T04:19:53;18.35;;;14.60;;
45806;SDS011;31507;51.494;7.518;2023-06-10T04:22:20;17.15;;;14.35;;
45806;SDS011;31507;51.494;7.518;2023-06-10T04:24:45;18.88;;;14.57;;
45806;SDS011;31507;51.494;7.518;2023-06-10T04:27:11;16.52;;;14.15;;
45806;SDS011;31507;51.494;7.518;2023-06-10T04:29:37;16.00;;;14.27;;
45806;SDS011;31507;51.494;7.518;2023-06-10T04:32:03;18.55;;;14.38;;
45806;SDS011;31507;51.494;7.518;2023-06-10T04:34:30;18.52;;;13.82;;
45806;SDS011;31507;51.494;7.518;2023-06-10T04:36:56;17.10;;;14.20;;
45806;SDS011;31507;51.494;7.518;2023-06-10T04:39:22;22.75;;;14.77;;
45806;SDS011;31507;51.494;7.518;2023-06-10T04:41:48;16.48;;;13.90;;
45806;SDS011;31507;51.494;7.518;2023-06-10T04:44:13;15.73;;;13.75;;
45806;SDS011;31507;51.494;7.518;2023-06-10T04:46:39;19.45;;;13.27;;
45806;SDS011;31507;51.494;7.518;2023-06-10T04:49:05;18.70;;;13.15;;
45806;SDS011;31507;51.494;7.518;2023-06-10T04:51:30;13.93;;;12.07;;
45806;SDS011;31507;51.494;7.518;2023-06-10T04:53:57;14.43;;;12.00;;
45806;SDS011;31507;51.494;7.518;2023-06-10T04:56:23;20.55;;;13.07;;
45806;SDS011;31507;51.494;7.518;2023-06-10T04:58:49;13.27;;;11.88;;
45806;SDS011;31507;51.494;7.518;2023-06-10T05:01:14;18.67;;;11.38;;
45806;SDS011;31507;51.494;7.518;2023-06-10T05:03:40;14.65;;;10.52;;
45806;SDS011;31507;51.494;7.518;2023-06-10T05:06:06;12.52;;;10.68;;
45806;SDS011;31507;51.494;7.518;2023-06-10T05:08:33;12.82;;;10.63;;
45806;SDS011;31507;51.494;7.518;2023-06-10T05:10:58;14.13;;;10.18;;
45806;SDS011;31507;51.494;7.518;2023-06-10T05:13:24;18.60;;;10.57;;
45806;SDS011;31507;51.494;7.518;2023-06-10T05:15:50;14.48;;;10.07;;
45806;SDS011;31507;51.494;7.518;2023-06-10T05:18:15;11.43;;;9.10;;
45806;SDS011;31507;51.494;7.518;2023-06-10T05:20:41;12.48;;;8.95;;
45806;SDS011;31507;51.494;7.518;2023-06-10T05:23:07;11.07;;;8.73;;
45806;SDS011;31507;51.494;7.518;2023-06-10T05:25:32;10.70;;;8.23;;
45806;SDS011;31507;51.494;7.518;2023-06-10T05:27:58;12.05;;;8.23;;
45806;SDS011;31507;51.494;7.518;2023-06-10T05:30:24;12.00;;;8.35;;
45806;SDS011;31507;51.494;7.518;2023-06-10T05:32:51;14.95;;;8.70;;
45806;SDS011;31507;51.494;7.518;2023-06-10T05:35:17;15.30;;;7.78;;
45806;SDS011;31507;51.494;7.518;2023-06-10T05:37:46;8.95;;;7.18;;
45806;SDS011;31507;51.494;7.518;2023-06-10T05:40:13;9.88;;;6.93;;
45806;SDS011;31507;51.494;7.518;2023-06-10T05:42:42;11.82;;;6.97;;
45806;SDS011;31507;51.494;7.518;2023-06-10T05:45:08;9.38;;;6.63;;
45806;SDS011;31507;51.494;7.518;2023-06-10T05:47:36;11.23;;;6.82;;
45806;SDS011;31507;51.494;7.518;2023-06-10T05:50:02;12.82;;;7.15;;
45806;SDS011;31507;51.494;7.518;2023-06-10T05:52:33;13.15;;;7.20;;
45806;SDS011;31507;51.494;7.518;2023-06-10T05:55:08;6.95;;;6.22;;
45806;SDS011;31507;51.494;7.518;2023-06-10T05:57:34;10.48;;;6.18;;
45806;SDS011;31507;51.494;7.518;2023-06-10T06:00:00;9.25;;;6.68;;
45806;SDS011;31507;51.494;7.518;2023-06-10T06:02:26;10.10;;;6.10;;
45806;SDS011;31507;51.494;7.518;2023-06-10T06:04:51;11.35;;;6.47;;
45806;SDS011;31507;51.494;7.518;2023-06-10T06:07:17;7.22;;;5.93;;
45806;SDS011;31507;51.494;7.518;2023-06-10T06:09:45;10.90;;;6.15;;
45806;SDS011;31507;51.494;7.518;2023-06-10T06:12:11;9.73;;;5.75;;
45806;SDS011;31507;51.494;7.518;2023-06-10T06:14:37;7.10;;;5.38;;
45806;SDS011;31507;51.494;7.518;2023-06-10T06:17:06;9.35;;;5.53;;
45806;SDS011;31507;51.494;7.518;2023-06-10T06:19:33;8.02;;;5.35;;
45806;SDS011;31507;51.494;7.518;2023-06-10T06:21:58;6.95;;;5.30;;
45806;SDS011;31507;51.494;7.518;2023-06-10T06:24:24;7.28;;;5.80;;
45806;SDS011;31507;51.494;7.518;2023-06-10T06:26:50;6.80;;;5.18;;
45806;SDS011;31507;51.494;7.518;2023-06-10T06:29:15;8.85;;;5.88;;
45806;SDS011;31507;51.494;7.518;2023-06-10T06:31:41;9.23;;;5.72;;
45806;SDS011;31507;51.494;7.518;2023-06-10T06:34:06;7.25;;;5.75;;
45806;SDS011;31507;51.494;7.518;2023-06-10T06:36:32;7.10;;;5.18;;
45806;SDS011;31507;51.494;7.518;2023-06-10T06:38:58;8.38;;;5.63;;
45806;SDS011;31507;51.494;7.518;2023-06-10T06:41:24;8.63;;;5.53;;
45806;SDS011;31507;51.494;7.518;2023-06-10T06:43:53;11.95;;;5.80;;
45806;SDS011;31507;51.494;7.518;2023-06-10T06:46:19;9.60;;;5.82;;
45806;SDS011;31507;51.494;7.518;2023-06-10T06:48:46;9.23;;;5.90;;
45806;SDS011;31507;51.494;7.518;2023-06-10T06:51:12;6.40;;;5.47;;
45806;SDS011;31507;51.494;7.518;2023-06-10T06:53:37;11.52;;;5.78;;
45806;SDS011;31507;51.494;7.518;2023-06-10T06:56:09;6.10;;;5.05;;
45806;SDS011;31507;51.494;7.518;2023-06-10T06:58:35;9.18;;;5.40;;
45806;SDS011;31507;51.494;7.518;2023-06-10T07:01:01;9.13;;;5.90;;
45806;SDS011;31507;51.494;7.518;2023-06-10T07:03:26;7.82;;;4.97;;
45806;SDS011;31507;51.494;7.518;2023-06-10T07:05:52;7.75;;;4.93;;
45806;SDS011;31507;51.494;7.518;2023-06-10T07:08:17;7.32;;;5.05;;
45806;SDS011;31507;51.494;7.518;2023-06-10T07:10:43;8.75;;;4.75;;
45806;SDS011;31507;51.494;7.518;2023-06-10T07:13:09;13.05;;;5.25;;
45806;SDS011;31507;51.494;7.518;2023-06-10T07:15:35;7.22;;;4.72;;
45806;SDS011;31507;51.494;7.518;2023-06-10T07:18:00;9.55;;;4.80;;
45806;SDS011;31507;51.494;7.518;2023-06-10T07:20:26;9.80;;;4.47;;
45806;SDS011;31507;51.494;7.518;2023-06-10T07:22:52;7.75;;;4.93;;
45806;SDS011;31507;51.494;7.518;2023-06-10T07:25:17;8.48;;;5.53;;
45806;SDS011;31507;51.494;7.518;2023-06-10T07:27:43;11.68;;;4.90;;
45806;SDS011;31507;51.494;7.518;2023-06-10T07:30:09;10.77;;;4.80;;
45806;SDS011;31507;51.494;7.518;2023-06-10T07:32:35;8.70;;;4.45;;
45806;SDS011;31507;51.494;7.518;2023-06-10T07:35:01;7.18;;;4.78;;
45806;SDS011;31507;51.494;7.518;2023-06-10T07:37:27;6.32;;;4.32;;
45806;SDS011;31507;51.494;7.518;2023-06-10T07:39:52;11.60;;;4.25;;
45806;SDS011;31507;51.494;7.518;2023-06-10T07:42:18;11.40;;;4.30;;
45806;SDS011;31507;51.494;7.518;2023-06-10T07:44:44;7.47;;;4.13;;
45806;SDS011;31507;51.494;7.518;2023-06-10T07:47:09;4.53;;;4.00;;
45806;SDS011;31507;51.494;7.518;2023-06-10T07:49:35;6.05;;;4.30;;
45806;SDS011;31507;51.494;7.518;2023-06-10T07:52:01;9.23;;;4.45;;
45806;SDS011;31507;51.494;7.518;2023-06-10T07:54:26;9.80;;;4.00;;
45806;SDS011;31507;51.494;7.518;2023-06-10T07:56:52;7.35;;;4.50;;
45806;SDS011;31507;51.494;7.518;2023-06-10T07:59:18;8.82;;;4.05;;
45806;SDS011;31507;51.494;7.518;2023-06-10T08:01:44;6.93;;;4.22;;
45806;SDS011;31507;51.494;7.518;2023-06-10T08:04:09;6.32;;;4.03;;
45806;SDS011;31507;51.494;7.518;2023-06-10T08:06:35;10.55;;;4.25;;
45806;SDS011;31507;51.494;7.518;2023-06-10T08:09:02;7.38;;;4.03;;
45806;SDS011;31507;51.494;7.518;2023-06-10T08:11:28;7.25;;;3.90;;
45806;SDS011;31507;51.494;7.518;2023-06-10T08:13:54;6.18;;;4.22;;
45806;SDS011;31507;51.494;7.518;2023-06-10T08:16:20;7.40;;;3.58;;
45806;SDS011;31507;51.494;7.518;2023-06-10T08:18:46;7.20;;;3.63;;
45806;SDS011;31507;51.494;7.518;2023-06-10T08:21:11;19.02;;;4.10;;
45806;SDS011;31507;51.494;7.518;2023-06-10T08:23:37;6.93;;;4.50;;
45806;SDS011;31507;51.494;7.518;2023-06-10T08:26:03;9.05;;;4.00;;
45806;SDS011;31507;51.494;7.518;2023-06-10T08:28:28;4.85;;;3.83;;
45806;SDS011;31507;51.494;7.518;2023-06-10T08:30:54;6.95;;;3.92;;
45806;SDS011;31507;51.494;7.518;2023-06-10T08:33:20;9.73;;;3.90;;
45806;SDS011;31507;51.494;7.518;2023-06-10T08:35:45;6.68;;;4.00;;
45806;SDS011;31507;51.494;7.518;2023-06-10T08:38:11;5.63;;;3.78;;
45806;SDS011;31507;51.494;7.518;2023-06-10T08:40:36;8.40;;;3.78;;
45806;SDS011;31507;51.494;7.518;2023-06-10T08:45:34;5.70;;;4.05;;
45806;SDS011;31507;51.494;7.518;2023-06-10T08:48:02;10.05;;;3.92;;
45806;SDS011;31507;51.494;7.518;2023-06-10T08:50:31;6.55;;;3.80;;
45806;SDS011;31507;51.494;7.518;2023-06-10T08:55:32;7.05;;;3.50;;
45806;SDS011;31507;51.494;7.518;2023-06-10T08:58:00;8.38;;;3.75;;
45806;SDS011;31507;51.494;7.518;2023-06-10T09:00:26;5.78;;;3.95;;
45806;SDS011;31507;51.494;7.518;2023-06-10T09:02:54;11.02;;;3.95;;
45806;SDS011;31507;51.494;7.518;2023-06-10T09:05:23;7.93;;;4.05;;
45806;SDS011;31507;51.494;7.518;2023-06-10T09:07:49;12.57;;;4.70;;
45806;SDS011;31507;51.494;7.518;2023-06-10T09:10:17;12.88;;;4.40;;
45806;SDS011;31507;51.494;7.518;2023-06-10T09:12:43;7.97;;;4.13;;
45806;SDS011;31507;51.494;7.518;2023-06-10T09:15:09;8.75;;;3.88;;
45806;SDS011;31507;51.494;7.518;2023-06-10T09:17:36;9.20;;;3.85;;
45806;SDS011;31507;51.494;7.518;2023-06-10T09:20:03;7.53;;;3.95;;
45806;SDS011;31507;51.494;7.518;2023-06-10T09:22:29;12.93;;;3.95;;
45806;SDS011;31507;51.494;7.518;2023-06-10T09:27:43;6.75;;;3.75;;
45806;SDS011;31507;51.494;7.518;2023-06-10T09:32:57;8.18;;;3.80;;
45806;SDS011;31507;51.494;7.518;2023-06-10T09:35:25;18.45;;;3.88;;
45806;SDS011;31507;51.494;7.518;2023-06-10T09:37:52;7.38;;;3.58;;
45806;SDS011;31507;51.494;7.518;2023-06-10T09:40:18;11.43;;;4.05;;
45806;SDS011;31507;51.494;7.518;2023-06-10T09:42:44;7.07;;;3.63;;
45806;SDS011;31507;51.494;7.518;2023-06-10T09:45:10;8.23;;;3.67;;
45806;SDS011;31507;51.494;7.518;2023-06-10T09:47:36;8.43;;;4.03;;
45806;SDS011;31507;51.494;7.518;2023-06-10T09:50:01;6.20;;;3.63;;
45806;SDS011;31507;51.494;7.518;2023-06-10T09:52:28;9.10;;;3.50;;
45806;SDS011;31507;51.494;7.518;2023-06-10T09:54:58;6.53;;;3.78;;
45806;SDS011;31507;51.494;7.518;2023-06-10T09:57:25;5.53;;;3.55;;
45806;SDS011;31507;51.494;7.518;2023-06-10T09:59:54;7.97;;;4.10;;
45806;SDS011;31507;51.494;7.518;2023-06-10T10:02:20;13.20;;;4.13;;
45806;SDS011;31507;51.494;7.518;2023-06-10T10:04:46;12.82;;;3.60;;
45806;SDS011;31507;51.494;7.518;2023-06-10T10:07:12;7.55;;;3.75;;
45806;SDS011;31507;51.494;7.518;2023-06-10T10:09:38;4.68;;;3.78;;
45806;SDS011;31507;51.494;7.518;2023-06-10T10:12:12;6.18;;;4.35;;
45806;SDS011;31507;51.494;7.518;2023-06-10T10:14:39;6.97;;;3.58;;
45806;SDS011;31507;51.494;7.518;2023-06-10T10:17:11;7.72;;;3.60;;
45806;SDS011;31507;51.494;7.518;2023-06-10T10:19:58;7.10;;;3.40;;
45806;SDS011;31507;51.494;7.518;2023-06-10T10:22:43;7.90;;;4.57;;
45806;SDS011;31507;51.494;7.518;2023-06-10T10:25:13;7.25;;;3.70;;
45806;SDS011;31507;51.494;7.518;2023-06-10T10:27:54;10.20;;;4.03;;
45806;SDS011;31507;51.494;7.518;2023-06-10T10:30:24;5.30;;;3.60;;
45806;SDS011;31507;51.494;7.518;2023-06-10T10:35:23;16.67;;;14.23;;
45806;SDS011;31507;51.494;7.518;2023-06-10T10:37:53;6.88;;;3.83;;
45806;SDS011;31507;51.494;7.518;2023-06-10T10:40:20;8.45;;;3.80;;
45806;SDS011;31507;51.494;7.518;2023-06-10T10:42:48;5.55;;;4.05;;
45806;SDS011;31507;51.494;7.518;2023-06-10T10:45:15;8.57;;;4.20;;
45806;SDS011;31507;51.494;7.518;2023-06-10T10:47:41;5.80;;;3.40;;
45806;SDS011;31507;51.494;7.518;2023-06-10T10:50:13;5.60;;;3.70;;
45806;SDS011;31507;51.494;7.518;2023-06-10T10:52:46;12.05;;;4.10;;
45806;SDS011;31507;51.494;7.518;2023-06-10T10:55:18;9.40;;;3.75;;
45806;SDS011;31507;51.494;7.518;2023-06-10T10:57:44;14.52;;;3.97;;
45806;SDS011;31507;51.494;7.518;2023-06-10T11:00:10;15.43;;;4.22;;
45806;SDS011;31507;51.494;7.518;2023-06-10T11:02:40;9.50;;;3.78;;
45806;SDS011;31507;51.494;7.518;2023-06-10T11:05:12;6.93;;;4.13;;
45806;SDS011;31507;51.494;7.518;2023-06-10T11:07:40;15.00;;;4.25;;
45806;SDS011;31507;51.494;7.518;2023-06-10T11:10:16;7.13;;;4.03;;
45806;SDS011;31507;51.494;7.518;2023-06-10T11:15:13;7.00;;;3.63;;
45806;SDS011;31507;51.494;7.518;2023-06-10T11:23:10;6.68;;;3.90;;
45806;SDS011;31507;51.494;7.518;2023-06-10T11:25:38;6.88;;;3.38;;
45806;SDS011;31507;51.494;7.518;2023-06-10T11:28:17;13.95;;;3.97;;
45806;SDS011;31507;51.494;7.518;2023-06-10T11:30:44;6.47;;;3.72;;
45806;SDS011;31507;51.494;7.518;2023-06-10T11:33:13;5.03;;;3.55;;
45806;SDS011;31507;51.494;7.518;2023-06-10T11:35:41;6.03;;;3.53;;
45806;SDS011;31507;51.494;7.518;2023-06-10T11:38:08;9.23;;;3.58;;
45806;SDS011;31507;51.494;7.518;2023-06-10T11:40:34;5.78;;;3.70;;
45806;SDS011;31507;51.494;7.518;2023-06-10T11:43:01;4.45;;;3.72;;
45806;SDS011;31507;51.494;7.518;2023-06-10T11:45:29;8.38;;;4.00;;
45806;SDS011;31507;51.494;7.518;2023-06-10T11:47:58;9.68;;;3.47;;
45806;SDS011;31507;51.494;7.518;2023-06-10T11:50:31;6.45;;;3.70;;
45806;SDS011;31507;51.494;7.518;2023-06-10T11:52:57;5.38;;;3.65;;
45806;SDS011;31507;51.494;7.518;2023-06-10T11:55:24;7.28;;;4.05;;
45806;SDS011;31507;51.494;7.518;2023-06-10T11:57:51;6.47;;;3.72;;
45806;SDS011;31507;51.494;7.518;2023-06-10T12:00:22;7.57;;;4.07;;
45806;SDS011;31507;51.494;7.518;2023-06-10T12:02:58;8.15;;;3.88;;
45806;SDS011;31507;51.494;7.518;2023-06-10T12:05:24;9.90;;;3.75;;
45806;SDS011;31507;51.494;7.518;2023-06-10T12:07:50;7.85;;;4.07;;
45806;SDS011;31507;51.494;7.518;2023-06-10T12:10:38;5.55;;;3.58;;
45806;SDS011;31507;51.494;7.518;2023-06-10T12:13:10;8.98;;;3.70;;
45806;SDS011;31507;51.494;7.518;2023-06-10T12:15:36;8.73;;;3.83;;
45806;SDS011;31507;51.494;7.518;2023-06-10T12:18:02;9.13;;;3.75;;
45806;SDS011;31507;51.494;7.518;2023-06-10T12:20:29;7.03;;;4.10;;
45806;SDS011;31507;51.494;7.518;2023-06-10T12:23:00;8.20;;;4.18;;
45806;SDS011;31507;51.494;7.518;2023-06-10T12:25:33;14.90;;;3.88;;
45806;SDS011;31507;51.494;7.518;2023-06-10T12:27:59;5.30;;;3.55;;
45806;SDS011;31507;51.494;7.518;2023-06-10T12:30:25;7.20;;;3.72;;
45806;SDS011;31507;51.494;7.518;2023-06-10T12:32:52;4.88;;;3.97;;
45806;SDS011;31507;51.494;7.518;2023-06-10T12:35:19;6.15;;;3.65;;
45806;SDS011;31507;51.494;7.518;2023-06-10T12:40:30;7.15;;;3.63;;
45806;SDS011;31507;51.494;7.518;2023-06-10T12:42:58;4.50;;;3.83;;
45806;SDS011;31507;51.494;7.518;2023-06-10T12:45:27;5.53;;;4.30;;
45806;SDS011;31507;51.494;7.518;2023-06-10T12:48:10;5.68;;;4.07;;
45806;SDS011;31507;51.494;7.518;2023-06-10T12:50:50;12.60;;;3.67;;
45806;SDS011;31507;51.494;7.518;2023-06-10T12:53:17;11.48;;;3.60;;
45806;SDS011;31507;51.494;7.518;2023-06-10T12:55:43;10.07;;;4.05;;
45806;SDS011;31507;51.494;7.518;2023-06-10T12:58:10;8.85;;;3.55;;
45806;SDS011;31507;51.494;7.518;2023-06-10T13:00:36;11.27;;;3.67;;
45806;SDS011;31507;51.494;7.518;2023-06-10T13:03:03;7.13;;;3.70;;
45806;SDS011;31507;51.494;7.518;2023-06-10T13:05:30;4.38;;;3.58;;
45806;SDS011;31507;51.494;7.518;2023-06-10T13:07:56;5.40;;;3.85;;
45806;SDS011;31507;51.494;7.518;2023-06-10T13:10:22;5.60;;;3.30;;
45806;SDS011;31507;51.494;7.518;2023-06-10T13:12:48;11.50;;;3.90;;
45806;SDS011;31507;51.494;7.518;2023-06-10T13:15:14;10.00;;;3.80;;
45806;SDS011;31507;51.494;7.518;2023-06-10T13:17:40;9.00;;;4.25;;
45806;SDS011;31507;51.494;7.518;2023-06-10T13:20:07;12.00;;;4.30;;
45806;SDS011;31507;51.494;7.518;2023-06-10T13:22:33;17.92;;;5.82;;
45806;SDS011;31507;51.494;7.518;2023-06-10T13:25:04;7.55;;;4.15;;
45806;SDS011;31507;51.494;7.518;2023-06-10T13:27:32;7.13;;;4.25;;
45806;SDS011;31507;51.494;7.518;2023-06-10T13:29:58;7.75;;;3.83;;
45806;SDS011;31507;51.494;7.518;2023-06-10T13:32:24;9.18;;;3.70;;
45806;SDS011;31507;51.494;7.518;2023-06-10T13:34:50;10.80;;;3.92;;
45806;SDS011;31507;51.494;7.518;2023-06-10T13:37:16;5.30;;;3.70;;
45806;SDS011;31507;51.494;7.518;2023-06-10T13:39:43;10.88;;;3.72;;
45806;SDS011;31507;51.494;7.518;2023-06-10T13:42:08;6.18;;;3.60;;
45806;SDS011;31507;51.494;7.518;2023-06-10T13:44:34;6.13;;;3.78;;
45806;SDS011;31507;51.494;7.518;2023-06-10T13:47:02;14.70;;;4.03;;
45806;SDS011;31507;51.494;7.518;2023-06-10T13:49:28;7.72;;;3.50;;
45806;SDS011;31507;51.494;7.518;2023-06-10T13:51:54;13.00;;;3.67;;
45806;SDS011;31507;51.494;7.518;2023-06-10T13:54:19;6.38;;;3.95;;
45806;SDS011;31507;51.494;7.518;2023-06-10T13:56:46;8.48;;;3.88;;
45806;SDS011;31507;51.494;7.518;2023-06-10T13:59:11;6.70;;;3.58;;
45806;SDS011;31507;51.494;7.518;2023-06-10T14:01:37;9.40;;;4.25;;
45806;SDS011;31507;51.494;7.518;2023-06-10T14:04:03;6.57;;;3.55;;
45806;SDS011;31507;51.494;7.518;2023-06-10T14:06:29;17.00;;;5.40;;
45806;SDS011;31507;51.494;7.518;2023-06-10T14:08:55;8.05;;;3.78;;
45806;SDS011;31507;51.494;7.518;2023-06-10T14:11:21;5.30;;;4.03;;
45806;SDS011;31507;51.494;7.518;2023-06-10T14:13:47;9.52;;;3.90;;
45806;SDS011;31507;51.494;7.518;2023-06-10T14:16:12;8.40;;;3.55;;
45806;SDS011;31507;51.494;7.518;2023-06-10T14:18:38;4.65;;;3.30;;
45806;SDS011;31507;51.494;7.518;2023-06-10T14:21:03;13.25;;;3.35;;
45806;SDS011;31507;51.494;7.518;2023-06-10T14:23:29;7.32;;;3.83;;
45806;SDS011;31507;51.494;7.518;2023-06-10T14:25:55;6.88;;;3.70;;
45806;SDS011;31507;51.494;7.518;2023-06-10T14:28:20;4.28;;;3.53;;
45806;SDS011;31507;51.494;7.518;2023-06-10T14:30:46;4.95;;;3.45;;
45806;SDS011;31507;51.494;7.518;2023-06-10T14:33:12;5.47;;;3.58;;
45806;SDS011;31507;51.494;7.518;2023-06-10T14:35:37;6.65;;;4.00;;
45806;SDS011;31507;51.494;7.518;2023-06-10T14:38:03;6.05;;;3.42;;
45806;SDS011;31507;51.494;7.518;2023-06-10T14:40:29;6.07;;;3.50;;
45806;SDS011;31507;51.494;7.518;2023-06-10T14:42:55;6.68;;;3.17;;
45806;SDS011;31507;51.494;7.518;2023-06-10T14:45:21;10.07;;;3.60;;
45806;SDS011;31507;51.494;7.518;2023-06-10T14:47:46;5.72;;;3.63;;
45806;SDS011;31507;51.494;7.518;2023-06-10T14:50:13;8.02;;;3.50;;
45806;SDS011;31507;51.494;7.518;2023-06-10T14:52:38;3.70;;;3.20;;
45806;SDS011;31507;51.494;7.518;2023-06-10T14:55:05;8.98;;;3.78;;
45806;SDS011;31507;51.494;7.518;2023-06-10T14:57:31;3.92;;;3.50;;
45806;SDS011;31507;51.494;7.518;2023-06-10T14:59:56;6.28;;;3.55;;
45806;SDS011;31507;51.494;7.518;2023-06-10T15:02:22;6.22;;;3.40;;